»·PEaware :: AHF30 KRNM-KVNY

AHF30 :: KRNM-KVNY

FLIGHT INFORMATION

Flight Status: Arrived
Operator: Unknown
More flights by this operator :: More flights under this callsign
Pilot: Mike N. (15036)
Aircraft: BELL TEXTRON MODEL 412
(B412)
More flights by this aircraft type
Origin: KRNM Ramona
United States
Destination: KVNY Van Nuys
United States
More flights between these airports :: More routes between these airports
Route: ROBNN V208 OCN V23 POPPR SMO125 SMO SMO317 CANOG
File this flight plan on PilotEdge
Remarks:
Altitude:
(Current/Filed)
6,000ft
Speed:
(Current/Filed)
130kts
Departed: 08-Nov-18 08:52 PM
Arrived: 08-Nov-18 09:56 PM
Distance/Time
Traveled:
106nm/1:03
Distance/Time
To Go:
Arrived

Flight Plot

Page will automatically refresh every two minutes.

Flight plan parsing failed; only flown route is shown


Map Options




Map Legend


Flown Route
Filed Route
Departure Airport
Arrival Airport
Navaid (VOR, NDB)
Fix

Horizontal Profiles

Position Reports

Time Latitude Longitude Heading Altitude Ground
Speed
08-Nov-18 20:33 33.039999 -116.912937 8 1400ft 0kts
08-Nov-18 20:34 33.039999 -116.912937 8 1400ft 0kts
08-Nov-18 20:35 33.039999 -116.912937 8 1400ft 0kts
08-Nov-18 20:36 33.039999 -116.912937 8 1400ft 0kts
08-Nov-18 20:37 33.039999 -116.912937 8 1400ft 0kts
08-Nov-18 20:38 33.039999 -116.912937 8 1400ft 0kts
08-Nov-18 20:39 33.039999 -116.912937 8 1400ft 0kts
08-Nov-18 20:40 33.039999 -116.912937 8 1400ft 0kts
08-Nov-18 20:41 33.039999 -116.912937 8 1400ft 0kts
08-Nov-18 20:42 33.039999 -116.912937 8 1400ft 0kts
08-Nov-18 20:43 33.039999 -116.912937 8 1400ft 0kts
08-Nov-18 20:44 33.039999 -116.912937 8 1400ft 0kts
08-Nov-18 20:45 33.039999 -116.912937 8 1400ft 0kts
08-Nov-18 20:46 33.039999 -116.912937 8 1400ft 0kts
08-Nov-18 20:47 33.039999 -116.912937 8 1400ft 0kts
08-Nov-18 20:48 33.039999 -116.912937 8 1400ft 0kts
08-Nov-18 20:49 33.039999 -116.912937 8 1400ft 0kts
08-Nov-18 20:50 33.039999 -116.912937 8 1400ft 0kts
08-Nov-18 20:51 33.039999 -116.912937 8 1400ft 0kts
08-Nov-18 20:52 33.040020 -116.912932 244 1400ft 0kts
08-Nov-18 20:53 33.040020 -116.912932 244 1400ft 0kts
08-Nov-18 20:54 33.040020 -116.912932 244 1400ft 0kts
08-Nov-18 20:55 33.040692 -116.924396 283 2174ft 67kts
08-Nov-18 20:56 33.045000 -116.944929 313 3529ft 55kts
08-Nov-18 20:57 33.051217 -116.961082 310 4733ft 64kts
08-Nov-18 20:58 33.059667 -116.980811 303 5937ft 72kts
08-Nov-18 20:59 33.073681 -117.013682 299 5976ft 125kts
08-Nov-18 21:00 33.088549 -117.052196 298 5945ft 131kts
08-Nov-18 21:01 33.104093 -117.090876 297 5956ft 126kts
08-Nov-18 21:02 33.120636 -117.128098 300 5993ft 131kts
08-Nov-18 21:03 33.137878 -117.166362 297 5978ft 131kts
08-Nov-18 21:04 33.154009 -117.205242 297 5980ft 129kts
08-Nov-18 21:05 33.167148 -117.237163 296 5973ft 131kts
08-Nov-18 21:06 33.183222 -117.276113 296 5965ft 131kts
08-Nov-18 21:07 33.199358 -117.315498 297 5982ft 132kts
08-Nov-18 21:08 33.215476 -117.354774 297 5982ft 131kts
08-Nov-18 21:09 33.231399 -117.393880 297 5984ft 130kts
08-Nov-18 21:10 33.250772 -117.429928 318 5974ft 132kts
08-Nov-18 21:11 33.277496 -117.459406 316 5969ft 132kts
08-Nov-18 21:12 33.303688 -117.489875 316 5987ft 132kts
08-Nov-18 21:13 33.329693 -117.520301 317 5982ft 133kts
08-Nov-18 21:14 33.355981 -117.551011 317 6007ft 131kts
08-Nov-18 21:15 33.382233 -117.581691 317 6011ft 131kts
08-Nov-18 21:16 33.408722 -117.612685 317 6011ft 132kts
08-Nov-18 21:17 33.435178 -117.643880 317 6006ft 133kts
08-Nov-18 21:18 33.457214 -117.670126 317 6011ft 134kts
08-Nov-18 21:19 33.488319 -117.707257 319 6012ft 136kts
08-Nov-18 21:20 33.510542 -117.733710 320 5990ft 136kts
08-Nov-18 21:21 33.541874 -117.770877 320 5992ft 133kts
08-Nov-18 21:22 33.564176 -117.797166 321 6001ft 134kts
08-Nov-18 21:23 33.595656 -117.834328 322 5989ft 137kts
08-Nov-18 21:24 33.618251 -117.860770 321 6008ft 135kts
08-Nov-18 21:25 33.645062 -117.892510 321 6003ft 134kts
08-Nov-18 21:26 33.676460 -117.929352 321 6016ft 133kts
08-Nov-18 21:27 33.698234 -117.955234 322 5998ft 132kts
08-Nov-18 21:28 33.724502 -117.986151 321 6000ft 131kts
08-Nov-18 21:29 33.750636 -118.016929 321 6003ft 131kts
08-Nov-18 21:30 33.776632 -118.047346 321 6004ft 131kts
08-Nov-18 21:31 33.791689 -118.088313 291 5991ft 137kts
08-Nov-18 21:32 33.802850 -118.131612 290 5985ft 135kts
08-Nov-18 21:33 33.813802 -118.174241 290 5986ft 135kts
08-Nov-18 21:34 33.824658 -118.216770 289 5987ft 133kts
08-Nov-18 21:35 33.835358 -118.258784 289 5977ft 132kts
08-Nov-18 21:36 33.850640 -118.297505 325 5981ft 132kts
08-Nov-18 21:37 33.878964 -118.324167 321 5995ft 130kts
08-Nov-18 21:38 33.906642 -118.351985 321 5990ft 129kts
08-Nov-18 21:39 33.934252 -118.379805 322 5991ft 129kts
08-Nov-18 21:40 33.961517 -118.407362 322 5996ft 128kts
08-Nov-18 21:41 33.988692 -118.434839 323 5990ft 127kts
08-Nov-18 21:42 34.017427 -118.459791 329 5986ft 127kts
08-Nov-18 21:43 34.046616 -118.483921 328 5891ft 126kts
08-Nov-18 21:44 34.075675 -118.507899 328 5420ft 125kts
08-Nov-18 21:45 34.103616 -118.530959 328 4929ft 126kts
08-Nov-18 21:46 34.132133 -118.554461 328 4237ft 124kts
08-Nov-18 21:47 34.159535 -118.574523 337 4345ft 105kts
08-Nov-18 21:48 34.184435 -118.596029 328 4100ft 114kts
08-Nov-18 21:49 34.204236 -118.619480 293 4358ft 96kts
08-Nov-18 21:50 34.202140 -118.655980 278 3987ft 120kts
08-Nov-18 21:51 34.185063 -118.679089 141 3929ft 95kts
08-Nov-18 21:52 34.190908 -118.659047 39 3716ft 71kts
08-Nov-18 21:53 34.200896 -118.640053 86 3581ft 99kts
08-Nov-18 21:54 34.199162 -118.609455 87 3462ft 84kts
08-Nov-18 21:55 34.199343 -118.578483 77 2730ft 85kts
08-Nov-18 21:56 34.200283 -118.549382 80 1760ft 84kts
08-Nov-18 21:57 34.199758 -118.519600 89 1584ft 91kts
08-Nov-18 21:58 34.198666 -118.491421 61 1457ft 80kts
08-Nov-18 21:59 34.214653 -118.495770 23 988ft 29kts
08-Nov-18 22:00 34.216614 -118.494512 13 816ft 2kts
08-Nov-18 22:01 34.216666 -118.494468 5 807ft 0kts
08-Nov-18 22:02 34.216666 -118.494468 5 807ft 0kts
08-Nov-18 22:03 34.216666 -118.494468 5 807ft 0kts
08-Nov-18 22:04 34.216666 -118.494468 5 807ft 0kts
08-Nov-18 22:05 34.216666 -118.494468 5 807ft 0kts
08-Nov-18 22:06 34.216666 -118.494468 5 807ft 0kts

Navigation Log

Ident Type
Flight plan parsing failed, navigation log unavailable